Mount Pearl, Canada
Current Conditions -  °F | °C
As of 10:00 PM on Wednesday 26 Nov 2014 (Local Time) from CYYT Reporting Station
Overcast Overcast  
Wind Chill: 33°   Ceiling: 15000
Heat Index: 39°   Visibility: 15mi
Dew Point: 36°   Wind: 9mph
Humidity: 87%   Direction: 260°W
Pressure: 30.13"   Gusts: NA
Location:  47.52°N, 52.82°W
Report Text: CYYT 270100Z 26008KT 15SM BKN150 OVC200 04/02 A3013 RMK AC6CS2 SLP207
Loading
Personal Weather Stations






























Interactive Weather Map New forecast layout! Learn more

10-Day Weather Forecast

Advertisements
Track Severe Weather on mobile